Overland Park, KS (66225)

6:15 AM CST on December 11, 2016 (GMT -0600)
| | Change Station

Elev -9999 ft 0.00 °N, 0.00 °E | Updated 6 minutes ago

Overcast
Overcast
65 °F
Feels Like 65 °F
N
12
Wind Variable Wind from South
Gusts 19 mph

Today
High -- | Low -- °F
--% Chance of Precip.
Yesterday
High -- | Low -- °F
Precip. -- in
Pressure 29.78 in
Visibility 10.0 miles
Clouds Overcast 2900 ft
Dew Point 64 °F
Humidity 98%
Rainfall --
Snow Depth Not available.
7:27 AM 4:56 PM
Waxing Gibbous, 91% visible
METAR KMKC 111154Z 15005KT 10SM OVC029 06/M02 A2976 RMK AO2 SLP082 T00611022 10061 20044 58024
Pressure 29.78 in
Visibility 10.0 miles
Clouds Overcast 2900 ft
Dew Point 64 °F
Humidity 98%
Rainfall --
Snow Depth Not available.
7:27 AM 4:56 PM
Waxing Gibbous, 91% visible
METAR KMKC 111154Z 15005KT 10SM OVC029 06/M02 A2976 RMK AO2 SLP082 T00611022 10061 20044 58024

10-Day Weather Forecast

Almanac

Astronomy

Dec. 11, 2016 Rise Set
Actual Time
Civil Twilight
Nautical Twilight
Astronomical Twilight
Moon
Length of Visible Light
Length of Day
Tomorrow will be .
, % of the Moon is Illuminated

Today's Extremes

State Highs State Lows

Community

WunderPhotos

Upload Photos

1,956,710 photos uploaded!

WunderBlog® & News

Nearby

Air Quality

  Air Quality AQ Index Pollutant
Not available.

Snow Depth

Station Depth Elevation

Earthquake Activity

City Distance Mag. Time & Date
Minimum magnitude displayed is 2.5.

Coastal Water Temperatures

Place Temperature

Stations

Nearby Weather Stations

Station Location Temp. Windchill Dew Point Humidity Wind Precip. Elev Updated Type
                   

Watches & Warnings

There are currently no watches in effect.